Time,TemperatureF,DewpointF,PressureIn,WindDirection,WindDirectionDegrees,WindSpeedMPH,WindSpeedGustMPH,Humidity,HourlyPrecipIn,Conditions,Clouds,dailyrainin,SoftwareType,DateUTC
2013-01-31 00:00:00,62.4,60.3,29.46,WSW,252,7.0,22.0,93,0.21,,,0.21,VWS V14.01,2013-01-31 05:00:00,
2013-01-31 00:01:00,62.3,60.2,29.46,WSW,254,18.0,22.0,93,0.21,,,0.21,VWS V14.01,2013-01-31 05:01:00,
2013-01-31 00:02:00,62.2,59.8,29.46,SW,233,15.0,15.0,92,0.20,,,0.00,VWS V14.01,2013-01-31 05:02:00,
2013-01-31 00:07:00,61.6,58.6,29.47,West,272,4.0,25.0,90,0.21,,,0.01,VWS V14.01,2013-01-31 05:07:00,
2013-01-31 00:12:00,60.7,57.8,29.46,WNW,300,4.0,25.0,90,0.21,,,0.01,VWS V14.01,2013-01-31 05:12:00,
2013-01-31 00:17:00,60.0,57.1,29.47,WSW,240,8.0,25.0,90,0.21,,,0.01,VWS V14.01,2013-01-31 05:17:00,
2013-01-31 00:22:00,59.6,56.7,29.47,WSW,253,6.0,25.0,90,0.21,,,0.01,VWS V14.01,2013-01-31 05:22:00,
2013-01-31 00:27:00,59.3,56.1,29.48,WSW,241,6.0,25.0,89,0.21,,,0.01,VWS V14.01,2013-01-31 05:27:00,
2013-01-31 00:32:00,59.1,55.5,29.48,WSW,246,11.0,16.0,88,0.20,,,0.01,VWS V14.01,2013-01-31 05:32:00,
2013-01-31 00:37:00,58.8,55.3,29.48,SW,236,6.0,17.0,88,0.20,,,0.01,VWS V14.01,2013-01-31 05:37:00,
2013-01-31 00:42:00,58.5,54.7,29.47,WSW,242,4.0,17.0,87,0.20,,,0.01,VWS V14.01,2013-01-31 05:42:00,
2013-01-31 00:47:00,58.3,54.5,29.48,NW,321,3.0,17.0,87,0.20,,,0.01,VWS V14.01,2013-01-31 05:47:00,
2013-01-31 00:52:00,57.8,54.3,29.49,WNW,291,4.0,18.0,88,0.21,,,0.02,VWS V14.01,2013-01-31 05:52:00,
2013-01-31 00:57:00,57.0,54.1,29.50,WSW,257,8.0,18.0,90,0.21,,,0.02,VWS V14.01,2013-01-31 05:57:00,
2013-01-31 01:02:00,56.3,53.7,29.50,WNW,296,2.0,5.0,91,0.02,,,0.02,VWS V14.01,2013-01-31 06:02:00,
2013-01-31 01:07:00,55.6,53.0,29.50,WSW,242,6.0,16.0,91,0.03,,,0.03,VWS V14.01,2013-01-31 06:07:00,
2013-01-31 01:12:00,54.9,52.3,29.49,West,259,4.0,16.0,91,0.04,,,0.04,VWS V14.01,2013-01-31 06:12:00,
2013-01-31 01:17:00,54.2,51.9,29.48,WNW,295,7.0,16.0,92,0.05,,,0.05,VWS V14.01,2013-01-31 06:17:00,
2013-01-31 01:22:00,53.7,51.1,29.49,SW,236,12.0,16.0,91,0.05,,,0.05,VWS V14.01,2013-01-31 06:22:00,
2013-01-31 01:27:00,53.4,50.5,29.50,South,186,3.0,16.0,90,0.06,,,0.06,VWS V14.01,2013-01-31 06:27:00,
2013-01-31 01:32:00,53.1,50.2,29.49,West,269,4.0,6.0,90,0.07,,,0.08,VWS V14.01,2013-01-31 06:32:00,
2013-01-31 01:37:00,52.7,50.2,29.50,West,279,5.0,10.0,91,0.09,,,0.10,VWS V14.01,2013-01-31 06:37:00,
2013-01-31 01:42:00,52.5,50.0,29.50,WSW,252,4.0,14.0,91,0.09,,,0.10,VWS V14.01,2013-01-31 06:42:00,
2013-01-31 01:47:00,52.4,50.2,29.49,West,263,7.0,15.0,92,0.09,,,0.10,VWS V14.01,2013-01-31 06:47:00,
2013-01-31 01:52:00,52.3,50.0,29.49,WSW,253,13.0,15.0,92,0.09,,,0.10,VWS V14.01,2013-01-31 06:52:00,
2013-01-31 01:57:00,52.3,49.8,29.48,SW,219,5.0,16.0,91,0.09,,,0.10,VWS V14.01,2013-01-31 06:57:00,
2013-01-31 02:02:00,52.2,49.7,29.49,WSW,237,7.0,8.0,91,0.08,,,0.10,VWS V14.01,2013-01-31 07:02:00,
2013-01-31 02:07:00,52.2,49.7,29.49,WSW,257,7.0,10.0,91,0.08,,,0.10,VWS V14.01,2013-01-31 07:07:00,
2013-01-31 02:12:00,52.1,49.6,29.50,WSW,254,2.0,13.0,91,0.08,,,0.10,VWS V14.01,2013-01-31 07:12:00,
2013-01-31 02:17:00,52.1,49.3,29.50,West,261,3.0,16.0,90,0.08,,,0.10,VWS V14.01,2013-01-31 07:17:00,
2013-01-31 02:22:00,52.0,49.2,29.50,WNW,296,9.0,16.0,90,0.08,,,0.10,VWS V14.01,2013-01-31 07:22:00,
2013-01-31 02:27:00,52.0,48.6,29.50,SSW,202,7.0,19.0,88,0.08,,,0.10,VWS V14.01,2013-01-31 07:27:00,
2013-01-31 02:32:00,52.0,48.6,29.50,WSW,244,2.0,12.0,88,0.02,,,0.10,VWS V14.01,2013-01-31 07:32:00,
2013-01-31 02:37:00,51.8,48.1,29.50,West,269,7.0,18.0,87,0.02,,,0.10,VWS V14.01,2013-01-31 07:37:00,
2013-01-31 02:42:00,51.8,48.1,29.49,SW,221,14.0,18.0,87,0.02,,,0.10,VWS V14.01,2013-01-31 07:42:00,
2013-01-31 02:47:00,51.9,47.8,29.50,WSW,245,7.0,18.0,86,0.02,,,0.10,VWS V14.01,2013-01-31 07:47:00,
2013-01-31 02:52:00,51.8,47.8,29.50,SSW,192,1.0,18.0,86,0.02,,,0.10,VWS V14.01,2013-01-31 07:52:00,
2013-01-31 02:57:00,51.6,47.6,29.50,SSW,211,7.0,18.0,86,0.02,,,0.10,VWS V14.01,2013-01-31 07:57:00,
2013-01-31 03:02:00,51.6,47.2,29.51,West,263,9.0,10.0,85,0.00,,,0.10,VWS V14.01,2013-01-31 08:02:00,
2013-01-31 03:07:00,51.6,46.9,29.50,SW,233,6.0,14.0,84,0.00,,,0.10,VWS V14.01,2013-01-31 08:07:00,
2013-01-31 03:12:00,51.6,46.6,29.51,WSW,252,5.0,15.0,83,0.00,,,0.10,VWS V14.01,2013-01-31 08:12:00,
2013-01-31 03:17:00,51.6,46.6,29.50,West,261,11.0,16.0,83,0.00,,,0.10,VWS V14.01,2013-01-31 08:17:00,
2013-01-31 03:22:00,51.6,46.9,29.51,WSW,252,5.0,22.0,84,0.00,,,0.10,VWS V14.01,2013-01-31 08:22:00,
2013-01-31 03:27:00,51.5,46.8,29.51,WSW,238,3.0,22.0,84,0.00,,,0.10,VWS V14.01,2013-01-31 08:27:00,
2013-01-31 03:32:00,51.4,46.7,29.51,WSW,257,8.0,12.0,84,0.00,,,0.10,VWS V14.01,2013-01-31 08:32:00,
2013-01-31 03:37:00,51.4,46.7,29.52,South,187,6.0,12.0,84,0.00,,,0.10,VWS V14.01,2013-01-31 08:37:00,
2013-01-31 03:42:00,51.4,46.7,29.52,WSW,249,12.0,12.0,84,0.00,,,0.10,VWS V14.01,2013-01-31 08:42:00,
2013-01-31 03:47:00,51.4,46.4,29.52,WSW,250,9.0,13.0,83,0.00,,,0.10,VWS V14.01,2013-01-31 08:47:00,
2013-01-31 03:52:00,51.5,46.5,29.52,NW,309,1.0,18.0,83,0.00,,,0.10,VWS V14.01,2013-01-31 08:52:00,
2013-01-31 03:57:00,51.4,46.4,29.53,West,261,10.0,18.0,83,0.00,,,0.10,VWS V14.01,2013-01-31 08:57:00,
2013-01-31 04:02:00,51.4,46.4,29.53,WSW,244,3.0,11.0,83,0.00,,,0.10,VWS V14.01,2013-01-31 09:02:00,
2013-01-31 04:07:00,51.4,46.1,29.53,WSW,248,10.0,13.0,82,0.00,,,0.10,VWS V14.01,2013-01-31 09:07:00,
2013-01-31 04:12:00,51.4,46.1,29.54,WNW,288,7.0,15.0,82,0.00,,,0.10,VWS V14.01,2013-01-31 09:12:00,
2013-01-31 04:17:00,51.4,46.1,29.54,SW,234,2.0,15.0,82,0.00,,,0.10,VWS V14.01,2013-01-31 09:17:00,
2013-01-31 04:22:00,51.4,45.8,29.54,WSW,243,15.0,15.0,81,0.00,,,0.10,VWS V14.01,2013-01-31 09:22:00,
2013-01-31 04:27:00,51.4,45.8,29.55,West,271,8.0,15.0,81,0.00,,,0.10,VWS V14.01,2013-01-31 09:27:00,
2013-01-31 04:32:00,51.3,45.7,29.55,WNW,283,8.0,15.0,81,0.00,,,0.10,VWS V14.01,2013-01-31 09:32:00,
2013-01-31 04:37:00,51.3,45.7,29.55,WSW,250,7.0,15.0,81,0.00,,,0.10,VWS V14.01,2013-01-31 09:37:00,
2013-01-31 04:42:00,51.3,45.3,29.56,SW,219,8.0,15.0,80,0.00,,,0.10,VWS V14.01,2013-01-31 09:42:00,
2013-01-31 04:47:00,51.2,45.2,29.56,WNW,294,5.0,15.0,80,0.00,,,0.10,VWS V14.01,2013-01-31 09:47:00,
2013-01-31 04:52:00,51.2,45.2,29.56,WSW,244,6.0,15.0,80,0.00,,,0.10,VWS V14.01,2013-01-31 09:52:00,
2013-01-31 04:57:00,51.1,45.2,29.56,West,267,4.0,15.0,80,0.00,,,0.10,VWS V14.01,2013-01-31 09:57:00,
2013-01-31 05:02:00,51.0,45.1,29.56,NNW,344,8.0,10.0,80,0.00,,,0.10,VWS V14.01,2013-01-31 10:02:00,
2013-01-31 05:07:00,51.0,45.1,29.57,North,355,6.0,12.0,80,0.00,,,0.10,VWS V14.01,2013-01-31 10:07:00,
2013-01-31 05:12:00,51.0,45.1,29.57,NW,306,5.0,12.0,80,0.00,,,0.10,VWS V14.01,2013-01-31 10:12:00,
2013-01-31 05:17:00,50.8,45.2,29.58,WSW,242,12.0,12.0,81,0.00,,,0.10,VWS V14.01,2013-01-31 10:17:00,
2013-01-31 05:22:00,50.4,45.8,29.59,NW,315,6.0,12.0,84,0.00,,,0.10,VWS V14.01,2013-01-31 10:22:00,
2013-01-31 05:27:00,49.9,45.3,29.59,WSW,257,10.0,15.0,84,0.00,,,0.10,VWS V14.01,2013-01-31 10:27:00,
2013-01-31 05:32:00,49.4,44.1,29.60,NNW,344,4.0,8.0,82,0.00,,,0.10,VWS V14.01,2013-01-31 10:32:00,
2013-01-31 05:37:00,49.2,44.0,29.60,NW,306,7.0,9.0,82,0.00,,,0.10,VWS V14.01,2013-01-31 10:37:00,
2013-01-31 05:42:00,48.9,43.3,29.61,West,272,2.0,14.0,81,0.00,,,0.10,VWS V14.01,2013-01-31 10:42:00,
2013-01-31 05:47:00,48.4,41.9,29.61,West,270,4.0,21.0,78,0.00,,,0.10,VWS V14.01,2013-01-31 10:47:00,
2013-01-31 05:52:00,48.3,41.8,29.61,WNW,292,3.0,21.0,78,0.00,,,0.10,VWS V14.01,2013-01-31 10:52:00,
2013-01-31 05:57:00,48.3,41.4,29.61,WSW,257,6.0,21.0,77,0.00,,,0.10,VWS V14.01,2013-01-31 10:57:00,
2013-01-31 06:02:00,48.3,41.8,29.62,WSW,239,2.0,6.0,78,0.00,,,0.10,VWS V14.01,2013-01-31 11:02:00,
2013-01-31 06:07:00,48.2,42.0,29.62,WSW,237,5.0,11.0,79,0.00,,,0.10,VWS V14.01,2013-01-31 11:07:00,
2013-01-31 06:12:00,48.0,42.1,29.62,WSW,249,6.0,11.0,80,0.00,,,0.10,VWS V14.01,2013-01-31 11:12:00,
2013-01-31 06:17:00,47.9,42.0,29.62,SW,229,8.0,11.0,80,0.00,,,0.10,VWS V14.01,2013-01-31 11:17:00,
2013-01-31 06:22:00,47.7,42.2,29.63,West,267,1.0,11.0,81,0.00,,,0.10,VWS V14.01,2013-01-31 11:22:00,
2013-01-31 06:27:00,47.5,42.0,29.64,West,280,6.0,11.0,81,0.00,,,0.10,VWS V14.01,2013-01-31 11:27:00,
2013-01-31 06:32:00,47.3,41.8,29.64,WNW,298,8.0,10.0,81,0.00,,,0.10,VWS V14.01,2013-01-31 11:32:00,
2013-01-31 06:37:00,47.2,41.7,29.65,WSW,254,2.0,10.0,81,0.00,,,0.10,VWS V14.01,2013-01-31 11:37:00,
2013-01-31 06:42:00,47.2,41.7,29.65,North,349,2.0,10.0,81,0.00,,,0.10,VWS V14.01,2013-01-31 11:42:00,
2013-01-31 06:47:00,47.3,41.8,29.65,WSW,252,2.0,10.0,81,0.00,,,0.10,VWS V14.01,2013-01-31 11:47:00,
2013-01-31 06:52:00,47.3,41.8,29.66,WNW,286,3.0,10.0,81,0.00,,,0.10,VWS V14.01,2013-01-31 11:52:00,
2013-01-31 06:57:00,47.3,40.8,29.66,WSW,254,5.0,10.0,78,0.00,,,0.10,VWS V14.01,2013-01-31 11:57:00,
2013-01-31 07:02:00,47.4,40.9,29.67,WNW,287,4.0,6.0,78,0.00,,,0.10,VWS V14.01,2013-01-31 12:02:00,
2013-01-31 07:07:00,47.4,40.6,29.67,SW,229,3.0,6.0,77,0.00,,,0.10,VWS V14.01,2013-01-31 12:07:00,
2013-01-31 07:12:00,47.3,40.5,29.67,SW,229,6.0,6.0,77,0.00,,,0.10,VWS V14.01,2013-01-31 12:12:00,
2013-01-31 07:17:00,47.2,40.0,29.68,WNW,294,2.0,7.0,76,0.00,,,0.10,VWS V14.01,2013-01-31 12:17:00,
2013-01-31 07:22:00,47.1,39.9,29.68,NW,306,3.0,7.0,76,0.00,,,0.10,VWS V14.01,2013-01-31 12:22:00,
2013-01-31 07:27:00,46.9,39.7,29.68,WNW,291,4.0,8.0,76,0.00,,,0.10,VWS V14.01,2013-01-31 12:27:00,
2013-01-31 07:32:00,46.8,37.5,29.69,NW,310,4.0,9.0,70,0.00,,,0.10,VWS V14.01,2013-01-31 12:32:00,
2013-01-31 07:37:00,46.6,36.2,29.70,NW,321,10.0,13.0,67,0.00,,,0.10,VWS V14.01,2013-01-31 12:37:00,
2013-01-31 07:42:00,46.3,35.2,29.70,WNW,292,7.0,13.0,65,0.00,,,0.10,VWS V14.01,2013-01-31 12:42:00,
2013-01-31 07:47:00,46.2,34.3,29.71,WNW,296,6.0,14.0,63,0.00,,,0.10,VWS V14.01,2013-01-31 12:47:00,
2013-01-31 07:52:00,46.0,33.7,29.72,NNW,331,16.0,16.0,62,0.00,,,0.10,VWS V14.01,2013-01-31 12:52:00,
2013-01-31 07:57:00,45.8,33.1,29.73,NW,315,8.0,16.0,61,0.00,,,0.10,VWS V14.01,2013-01-31 12:57:00,
2013-01-31 08:02:00,45.5,31.6,29.74,NNW,329,16.0,16.0,58,0.00,,,0.10,VWS V14.01,2013-01-31 13:02:00,
2013-01-31 08:07:00,45.3,31.8,29.74,WNW,283,5.0,16.0,59,0.00,,,0.10,VWS V14.01,2013-01-31 13:07:00,
2013-01-31 08:12:00,45.3,31.0,29.74,WNW,292,9.0,16.0,57,0.00,,,0.10,VWS V14.01,2013-01-31 13:12:00,
2013-01-31 08:17:00,45.4,31.1,29.75,NNW,330,15.0,18.0,57,0.00,,,0.10,VWS V14.01,2013-01-31 13:17:00,
2013-01-31 08:22:00,45.4,30.2,29.75,NNW,342,7.0,18.0,55,0.00,,,0.10,VWS V14.01,2013-01-31 13:22:00,
2013-01-31 08:27:00,45.3,29.2,29.76,West,275,5.0,18.0,53,0.00,,,0.10,VWS V14.01,2013-01-31 13:27:00,
2013-01-31 08:32:00,45.2,27.7,29.76,NW,304,8.0,19.0,50,0.00,,,0.10,VWS V14.01,2013-01-31 13:32:00,
2013-01-31 08:37:00,45.1,29.0,29.76,WSW,257,3.0,19.0,53,0.00,,,0.10,VWS V14.01,2013-01-31 13:37:00,
2013-01-31 08:42:00,45.1,28.1,29.76,NNE,16,7.0,19.0,51,0.00,,,0.10,VWS V14.01,2013-01-31 13:42:00,
2013-01-31 08:47:00,45.0,28.0,29.77,WNW,300,6.0,19.0,51,0.00,,,0.10,VWS V14.01,2013-01-31 13:47:00,
2013-01-31 08:52:00,44.9,27.9,29.78,NW,305,11.0,19.0,51,0.00,,,0.10,VWS V14.01,2013-01-31 13:52:00,
2013-01-31 08:57:00,44.8,27.8,29.78,NW,304,10.0,19.0,51,0.00,,,0.10,VWS V14.01,2013-01-31 13:57:00,
2013-01-31 09:02:00,44.8,28.3,29.78,WNW,291,6.0,9.0,52,0.00,,,0.10,VWS V14.01,2013-01-31 14:02:00,
2013-01-31 09:07:00,44.9,28.4,29.79,NNW,341,10.0,13.0,52,0.00,,,0.10,VWS V14.01,2013-01-31 14:07:00,
2013-01-31 09:12:00,44.8,27.8,29.80,WNW,286,9.0,15.0,51,0.00,,,0.10,VWS V14.01,2013-01-31 14:12:00,
2013-01-31 09:17:00,44.8,27.8,29.80,NW,310,8.0,15.0,51,0.00,,,0.10,VWS V14.01,2013-01-31 14:17:00,
2013-01-31 09:22:00,44.8,26.8,29.80,NW,313,11.0,17.0,49,0.00,,,0.10,VWS V14.01,2013-01-31 14:22:00,
2013-01-31 09:27:00,44.7,26.7,29.80,NNW,329,5.0,19.0,49,0.00,,,0.10,VWS V14.01,2013-01-31 14:27:00,
2013-01-31 09:32:00,44.7,26.2,29.81,WNW,303,11.0,12.0,48,0.00,,,0.10,VWS V14.01,2013-01-31 14:32:00,
2013-01-31 09:37:00,44.8,26.8,29.81,NW,323,12.0,16.0,49,0.00,,,0.10,VWS V14.01,2013-01-31 14:37:00,
2013-01-31 09:42:00,44.9,25.9,29.81,NW,309,7.0,22.0,47,0.00,,,0.10,VWS V14.01,2013-01-31 14:42:00,
2013-01-31 09:47:00,44.9,25.9,29.82,NNW,331,8.0,22.0,47,0.00,,,0.10,VWS V14.01,2013-01-31 14:47:00,
2013-01-31 09:52:00,44.9,25.4,29.82,WNW,296,4.0,22.0,46,0.00,,,0.10,VWS V14.01,2013-01-31 14:52:00,
2013-01-31 09:57:00,45.2,26.2,29.82,WNW,288,2.0,22.0,47,0.00,,,0.10,VWS V14.01,2013-01-31 14:57:00,
2013-01-31 10:02:00,45.6,25.5,29.83,WSW,246,3.0,13.0,45,0.00,,,0.10,VWS V14.01,2013-01-31 15:02:00,
2013-01-31 10:07:00,45.5,25.4,29.82,WNW,300,2.0,14.0,45,0.00,,,0.10,VWS V14.01,2013-01-31 15:07:00,
2013-01-31 10:12:00,45.5,25.4,29.83,WSW,254,11.0,18.0,45,0.00,,,0.10,VWS V14.01,2013-01-31 15:12:00,
2013-01-31 10:17:00,45.5,25.4,29.83,WNW,293,6.0,20.0,45,0.00,,,0.10,VWS V14.01,2013-01-31 15:17:00,
2013-01-31 10:22:00,45.8,24.6,29.84,NW,315,7.0,20.0,43,0.00,,,0.10,VWS V14.01,2013-01-31 15:22:00,
2013-01-31 10:27:00,45.9,24.1,29.84,WNW,302,15.0,20.0,42,0.00,,,0.10,VWS V14.01,2013-01-31 15:27:00,
2013-01-31 10:32:00,45.9,24.7,29.84,WSW,241,17.0,17.0,43,0.00,,,0.10,VWS V14.01,2013-01-31 15:32:00,
2013-01-31 10:37:00,45.9,25.2,29.84,NW,322,9.0,17.0,44,0.00,,,0.10,VWS V14.01,2013-01-31 15:37:00,
2013-01-31 10:42:00,46.0,25.3,29.84,NW,306,11.0,18.0,44,0.00,,,0.10,VWS V14.01,2013-01-31 15:42:00,
2013-01-31 10:47:00,45.8,23.5,29.84,WNW,292,9.0,21.0,41,0.00,,,0.10,VWS V14.01,2013-01-31 15:47:00,
2013-01-31 10:52:00,45.7,23.4,29.84,NW,324,12.0,21.0,41,0.00,,,0.10,VWS V14.01,2013-01-31 15:52:00,
2013-01-31 10:57:00,45.6,23.3,29.84,NW,309,11.0,21.0,41,0.00,,,0.10,VWS V14.01,2013-01-31 15:57:00,
2013-01-31 11:02:00,45.5,23.8,29.84,NW,315,11.0,12.0,42,0.00,,,0.10,VWS V14.01,2013-01-31 16:02:00,
2013-01-31 11:07:00,46.1,24.9,29.85,NW,325,10.0,15.0,43,0.00,,,0.10,VWS V14.01,2013-01-31 16:07:00,
2013-01-31 11:12:00,46.8,26.0,29.85,NW,311,10.0,15.0,44,0.00,,,0.10,VWS V14.01,2013-01-31 16:12:00,
2013-01-31 11:17:00,46.5,22.9,29.85,NW,311,10.0,24.0,39,0.00,,,0.10,VWS V14.01,2013-01-31 16:17:00,
2013-01-31 11:22:00,46.1,21.3,29.85,WNW,294,6.0,24.0,37,0.00,,,0.10,VWS V14.01,2013-01-31 16:22:00,
2013-01-31 11:27:00,46.5,22.9,29.85,NW,319,7.0,24.0,39,0.00,,,0.10,VWS V14.01,2013-01-31 16:27:00,
2013-01-31 11:32:00,47.1,22.8,29.85,WNW,296,6.0,8.0,38,0.00,,,0.10,VWS V14.01,2013-01-31 16:32:00,
2013-01-31 11:37:00,47.2,22.9,29.85,NNW,338,4.0,20.0,38,0.00,,,0.10,VWS V14.01,2013-01-31 16:37:00,
2013-01-31 11:42:00,47.2,23.5,29.85,WSW,252,8.0,20.0,39,0.00,,,0.10,VWS V14.01,2013-01-31 16:42:00,
2013-01-31 11:47:00,46.9,23.9,29.84,WNW,297,4.0,20.0,40,0.00,,,0.10,VWS V14.01,2013-01-31 16:47:00,
2013-01-31 11:52:00,47.5,24.4,29.84,WSW,248,9.0,20.0,40,0.00,,,0.10,VWS V14.01,2013-01-31 16:52:00,
2013-01-31 11:57:00,47.7,23.4,29.84,West,268,15.0,20.0,38,0.00,,,0.10,VWS V14.01,2013-01-31 16:57:00,
2013-01-31 12:02:00,47.7,24.6,29.84,NW,321,13.0,13.0,40,0.00,,,0.10,VWS V14.01,2013-01-31 17:02:00,
2013-01-31 12:07:00,47.8,24.7,29.83,WNW,287,8.0,13.0,40,0.00,,,0.10,VWS V14.01,2013-01-31 17:07:00,
2013-01-31 12:12:00,47.6,24.5,29.84,WNW,296,4.0,15.0,40,0.00,,,0.10,VWS V14.01,2013-01-31 17:12:00,
2013-01-31 12:17:00,47.7,25.2,29.83,West,260,6.0,17.0,41,0.00,,,0.10,VWS V14.01,2013-01-31 17:17:00,
2013-01-31 12:21:00,47.9,24.1,29.83,WNW,283,9.0,17.0,39,0.00,,,0.10,VWS V14.01,2013-01-31 17:21:00,
2013-01-31 12:26:00,48.0,24.2,29.83,West,277,7.0,17.0,39,0.00,,,0.10,VWS V14.01,2013-01-31 17:26:00,
2013-01-31 12:31:00,48.0,24.2,29.83,NW,309,4.0,7.0,39,0.00,,,0.10,VWS V14.01,2013-01-31 17:31:00,
2013-01-31 12:36:00,48.4,25.2,29.83,WNW,287,9.0,14.0,40,0.00,,,0.10,VWS V14.01,2013-01-31 17:36:00,
2013-01-31 12:41:00,48.3,24.5,29.83,NNW,331,10.0,17.0,39,0.00,,,0.10,VWS V14.01,2013-01-31 17:41:00,
2013-01-31 12:46:00,48.4,24.0,29.83,West,281,10.0,17.0,38,0.00,,,0.10,VWS V14.01,2013-01-31 17:46:00,
2013-01-31 12:51:00,48.3,24.5,29.82,West,280,6.0,17.0,39,0.00,,,0.10,VWS V14.01,2013-01-31 17:51:00,
2013-01-31 12:56:00,48.6,24.8,29.82,WNW,291,6.0,17.0,39,0.00,,,0.10,VWS V14.01,2013-01-31 17:56:00,
2013-01-31 13:01:00,49.1,24.6,29.83,SW,230,11.0,11.0,38,0.00,,,0.10,VWS V14.01,2013-01-31 18:01:00,
2013-01-31 13:06:00,48.5,23.4,29.83,West,259,3.0,19.0,37,0.00,,,0.10,VWS V14.01,2013-01-31 18:06:00,
2013-01-31 13:11:00,48.8,23.7,29.83,WSW,240,3.0,19.0,37,0.00,,,0.10,VWS V14.01,2013-01-31 18:11:00,
2013-01-31 13:16:00,48.6,22.2,29.82,WSW,240,2.0,19.0,35,0.00,,,0.10,VWS V14.01,2013-01-31 18:16:00,
2013-01-31 13:21:00,48.8,23.0,29.83,West,277,9.0,19.0,36,0.00,,,0.10,VWS V14.01,2013-01-31 18:21:00,
2013-01-31 13:26:00,48.8,23.0,29.83,NNW,333,8.0,21.0,36,0.00,,,0.10,VWS V14.01,2013-01-31 18:26:00,
2013-01-31 13:31:00,48.6,21.5,29.83,West,276,6.0,20.0,34,0.00,,,0.10,VWS V14.01,2013-01-31 18:31:00,
2013-01-31 13:36:00,48.6,20.8,29.83,NW,311,7.0,20.0,33,0.00,,,0.10,VWS V14.01,2013-01-31 18:36:00,
2013-01-31 13:41:00,48.5,20.7,29.83,NW,325,15.0,20.0,33,0.00,,,0.10,VWS V14.01,2013-01-31 18:41:00,
2013-01-31 13:46:00,48.5,19.3,29.83,NNW,338,10.0,22.0,31,0.00,,,0.10,VWS V14.01,2013-01-31 18:46:00,
2013-01-31 13:51:00,48.7,20.2,29.83,NNW,342,9.0,23.0,32,0.00,,,0.10,VWS V14.01,2013-01-31 18:51:00,
2013-01-31 13:56:00,48.7,20.2,29.83,West,281,5.0,23.0,32,0.00,,,0.10,VWS V14.01,2013-01-31 18:56:00,
2013-01-31 14:01:00,49.1,21.3,29.84,WSW,252,7.0,7.0,33,0.00,,,0.10,VWS V14.01,2013-01-31 19:01:00,
2013-01-31 14:06:00,49.4,20.8,29.84,WNW,286,8.0,14.0,32,0.00,,,0.10,VWS V14.01,2013-01-31 19:06:00,
2013-01-31 14:11:00,49.3,20.7,29.84,WNW,288,8.0,18.0,32,0.00,,,0.10,VWS V14.01,2013-01-31 19:11:00,
2013-01-31 14:16:00,49.3,22.1,29.83,West,273,8.0,18.0,34,0.00,,,0.10,VWS V14.01,2013-01-31 19:16:00,
2013-01-31 14:21:00,49.2,21.3,29.83,West,278,5.0,21.0,33,0.00,,,0.10,VWS V14.01,2013-01-31 19:21:00,
2013-01-31 14:26:00,49.2,20.6,29.84,WNW,296,4.0,21.0,32,0.00,,,0.10,VWS V14.01,2013-01-31 19:26:00,
2013-01-31 14:31:00,49.2,21.3,29.84,WSW,254,9.0,15.0,33,0.00,,,0.10,VWS V14.01,2013-01-31 19:31:00,
2013-01-31 14:36:00,49.3,22.1,29.84,West,272,5.0,15.0,34,0.00,,,0.10,VWS V14.01,2013-01-31 19:36:00,
2013-01-31 14:41:00,49.2,22.0,29.84,WSW,252,12.0,17.0,34,0.00,,,0.10,VWS V14.01,2013-01-31 19:41:00,
2013-01-31 14:46:00,49.1,21.3,29.84,NW,308,3.0,17.0,33,0.00,,,0.10,VWS V14.01,2013-01-31 19:46:00,
2013-01-31 14:51:00,49.2,21.3,29.85,NW,315,6.0,17.0,33,0.00,,,0.10,VWS V14.01,2013-01-31 19:51:00,
2013-01-31 14:56:00,49.4,22.2,29.85,NW,304,5.0,17.0,34,0.00,,,0.10,VWS V14.01,2013-01-31 19:56:00,
2013-01-31 15:01:00,49.4,21.5,29.86,NW,320,8.0,17.0,33,0.00,,,0.10,VWS V14.01,2013-01-31 20:01:00,
2013-01-31 15:06:00,49.0,21.9,29.85,NW,315,16.0,17.0,34,0.00,,,0.10,VWS V14.01,2013-01-31 20:06:00,
2013-01-31 15:11:00,49.0,22.6,29.86,West,261,6.0,19.0,35,0.00,,,0.10,VWS V14.01,2013-01-31 20:11:00,
2013-01-31 15:16:00,49.3,21.4,29.86,NW,308,4.0,19.0,33,0.00,,,0.10,VWS V14.01,2013-01-31 20:16:00,
2013-01-31 15:21:00,49.4,22.2,29.86,NW,315,4.0,19.0,34,0.00,,,0.10,VWS V14.01,2013-01-31 20:21:00,
2013-01-31 15:26:00,49.3,20.7,29.86,NW,313,10.0,19.0,32,0.00,,,0.10,VWS V14.01,2013-01-31 20:26:00,
2013-01-31 15:31:00,49.4,20.8,29.86,West,263,7.0,8.0,32,0.00,,,0.10,VWS V14.01,2013-01-31 20:31:00,
2013-01-31 15:36:00,49.4,20.8,29.87,NW,304,9.0,16.0,32,0.00,,,0.10,VWS V14.01,2013-01-31 20:36:00,
2013-01-31 15:41:00,49.1,20.5,29.87,NW,310,9.0,18.0,32,0.00,,,0.10,VWS V14.01,2013-01-31 20:41:00,
2013-01-31 15:46:00,49.1,20.5,29.87,NW,313,7.0,18.0,32,0.00,,,0.10,VWS V14.01,2013-01-31 20:46:00,
2013-01-31 15:51:00,49.1,20.5,29.87,NNW,328,5.0,18.0,32,0.00,,,0.10,VWS V14.01,2013-01-31 20:51:00,
2013-01-31 15:56:00,49.5,20.9,29.88,NNW,333,6.0,18.0,32,0.00,,,0.10,VWS V14.01,2013-01-31 20:56:00,
2013-01-31 16:01:00,49.4,19.3,29.88,NW,309,10.0,15.0,30,0.00,,,0.10,VWS V14.01,2013-01-31 21:01:00,
2013-01-31 16:06:00,49.2,19.1,29.88,WNW,290,10.0,15.0,30,0.00,,,0.10,VWS V14.01,2013-01-31 21:06:00,
2013-01-31 16:11:00,49.4,20.0,29.89,West,276,5.0,19.0,31,0.00,,,0.10,VWS V14.01,2013-01-31 21:11:00,
2013-01-31 16:16:00,49.2,19.9,29.89,WNW,299,9.0,19.0,31,0.00,,,0.10,VWS V14.01,2013-01-31 21:16:00,
2013-01-31 16:21:00,49.1,20.5,29.89,NW,305,8.0,19.0,32,0.00,,,0.10,VWS V14.01,2013-01-31 21:21:00,
2013-01-31 16:26:00,48.9,20.4,29.90,NW,311,4.0,19.0,32,0.00,,,0.10,VWS V14.01,2013-01-31 21:26:00,
2013-01-31 16:31:00,48.7,20.2,29.90,NNW,327,6.0,12.0,32,0.00,,,0.10,VWS V14.01,2013-01-31 21:31:00,
2013-01-31 16:36:00,48.5,20.0,29.90,West,280,2.0,16.0,32,0.00,,,0.10,VWS V14.01,2013-01-31 21:36:00,
2013-01-31 16:41:00,48.5,20.7,29.90,WSW,245,12.0,18.0,33,0.00,,,0.10,VWS V14.01,2013-01-31 21:41:00,
2013-01-31 16:46:00,48.4,20.6,29.91,WSW,257,11.0,18.0,33,0.00,,,0.10,VWS V14.01,2013-01-31 21:46:00,
2013-01-31 16:51:00,48.3,20.5,29.91,WSW,257,6.0,18.0,33,0.00,,,0.10,VWS V14.01,2013-01-31 21:51:00,
2013-01-31 16:56:00,48.0,20.3,29.91,NNW,346,8.0,18.0,33,0.00,,,0.10,VWS V14.01,2013-01-31 21:56:00,
2013-01-31 17:01:00,47.8,20.8,29.91,NW,313,8.0,8.0,34,0.00,,,0.10,VWS V14.01,2013-01-31 22:01:00,
2013-01-31 17:06:00,47.7,20.7,29.92,NNW,342,5.0,13.0,34,0.00,,,0.10,VWS V14.01,2013-01-31 22:06:00,
2013-01-31 17:11:00,47.5,20.5,29.91,WNW,302,8.0,13.0,34,0.00,,,0.10,VWS V14.01,2013-01-31 22:11:00,
2013-01-31 17:16:00,47.3,21.0,29.91,West,278,4.0,14.0,35,0.00,,,0.10,VWS V14.01,2013-01-31 22:16:00,
2013-01-31 17:21:00,47.2,21.0,29.91,NW,320,7.0,14.0,35,0.00,,,0.10,VWS V14.01,2013-01-31 22:21:00,
2013-01-31 17:26:00,47.0,20.8,29.92,NW,306,3.0,14.0,35,0.00,,,0.10,VWS V14.01,2013-01-31 22:26:00,
2013-01-31 17:31:00,46.9,21.4,29.92,WSW,238,2.0,2.0,36,0.00,,,0.10,VWS V14.01,2013-01-31 22:31:00,
2013-01-31 17:36:00,46.7,21.2,29.92,NW,312,4.0,12.0,36,0.00,,,0.10,VWS V14.01,2013-01-31 22:36:00,
2013-01-31 17:41:00,46.5,21.0,29.92,NW,311,5.0,12.0,36,0.00,,,0.10,VWS V14.01,2013-01-31 22:41:00,
2013-01-31 17:46:00,46.3,21.5,29.92,WSW,253,3.0,12.0,37,0.00,,,0.10,VWS V14.01,2013-01-31 22:46:00,
2013-01-31 17:51:00,46.1,21.9,29.92,WNW,291,5.0,12.0,38,0.00,,,0.10,VWS V14.01,2013-01-31 22:51:00,
2013-01-31 17:56:00,46.0,21.8,29.92,SW,233,4.0,12.0,38,0.00,,,0.10,VWS V14.01,2013-01-31 22:56:00,
2013-01-31 18:01:00,45.8,22.3,29.93,NW,313,2.0,2.0,39,0.00,,,0.10,VWS V14.01,2013-01-31 23:01:00,
2013-01-31 18:06:00,45.6,22.1,29.93,WNW,292,4.0,4.0,39,0.00,,,0.10,VWS V14.01,2013-01-31 23:06:00,
2013-01-31 18:11:00,45.4,22.5,29.94,NW,312,4.0,5.0,40,0.00,,,0.10,VWS V14.01,2013-01-31 23:11:00,
2013-01-31 18:16:00,45.2,22.3,29.94,WNW,283,3.0,7.0,40,0.00,,,0.10,VWS V14.01,2013-01-31 23:16:00,
2013-01-31 18:21:00,45.0,22.7,29.94,NW,315,3.0,7.0,41,0.00,,,0.10,VWS V14.01,2013-01-31 23:21:00,
2013-01-31 18:26:00,44.7,22.5,29.94,NW,307,2.0,7.0,41,0.00,,,0.10,VWS V14.01,2013-01-31 23:26:00,
2013-01-31 18:31:00,44.5,22.9,29.95,WNW,294,3.0,3.0,42,0.00,,,0.10,VWS V14.01,2013-01-31 23:31:00,
2013-01-31 18:36:00,44.4,22.8,29.95,NW,315,3.0,5.0,42,0.00,,,0.10,VWS V14.01,2013-01-31 23:36:00,
2013-01-31 18:41:00,44.3,22.7,29.95,NW,306,3.0,8.0,42,0.00,,,0.10,VWS V14.01,2013-01-31 23:41:00,
2013-01-31 18:46:00,44.3,22.7,29.96,NW,321,5.0,8.0,42,0.00,,,0.10,VWS V14.01,2013-01-31 23:46:00,
2013-01-31 18:51:00,44.2,22.6,29.96,NW,309,4.0,8.0,42,0.00,,,0.10,VWS V14.01,2013-01-31 23:51:00,
2013-01-31 18:56:00,44.1,22.5,29.96,NW,324,8.0,8.0,42,0.00,,,0.10,VWS V14.01,2013-01-31 23:56:00,
2013-01-31 19:01:00,44.1,22.5,29.97,NW,324,3.0,3.0,42,0.00,,,0.10,VWS V14.01,2013-02-01 00:01:00,
2013-01-31 19:06:00,43.9,22.3,29.97,WNW,302,4.0,6.0,42,0.00,,,0.10,VWS V14.01,2013-02-01 00:06:00,
2013-01-31 19:11:00,43.8,22.2,29.97,NW,326,4.0,8.0,42,0.00,,,0.10,VWS V14.01,2013-02-01 00:11:00,
2013-01-31 19:16:00,43.7,22.1,29.97,WNW,292,5.0,8.0,42,0.00,,,0.10,VWS V14.01,2013-02-01 00:16:00,
2013-01-31 19:21:00,43.6,22.6,29.97,NW,326,5.0,8.0,43,0.00,,,0.10,VWS V14.01,2013-02-01 00:21:00,
2013-01-31 19:26:00,43.5,22.5,29.98,NW,316,6.0,8.0,43,0.00,,,0.10,VWS V14.01,2013-02-01 00:26:00,
2013-01-31 19:31:00,43.5,22.5,29.98,WNW,282,5.0,6.0,43,0.00,,,0.10,VWS V14.01,2013-02-01 00:31:00,
2013-01-31 19:36:00,43.4,22.4,29.98,NW,319,2.0,6.0,43,0.00,,,0.10,VWS V14.01,2013-02-01 00:36:00,
2013-01-31 19:41:00,43.3,22.3,29.98,WNW,296,4.0,6.0,43,0.00,,,0.10,VWS V14.01,2013-02-01 00:41:00,
2013-01-31 19:46:00,43.1,22.1,29.99,WNW,290,2.0,8.0,43,0.00,,,0.10,VWS V14.01,2013-02-01 00:46:00,
2013-01-31 19:51:00,42.9,22.5,29.99,WNW,293,3.0,8.0,44,0.00,,,0.10,VWS V14.01,2013-02-01 00:51:00,
2013-01-31 19:56:00,42.8,21.9,29.99,WNW,302,2.0,8.0,43,0.00,,,0.10,VWS V14.01,2013-02-01 00:56:00,
2013-01-31 20:01:00,42.6,22.2,29.99,West,279,1.0,1.0,44,0.00,,,0.10,VWS V14.01,2013-02-01 01:01:00,
2013-01-31 20:06:00,42.5,22.1,29.99,West,265,1.0,4.0,44,0.00,,,0.10,VWS V14.01,2013-02-01 01:06:00,
2013-01-31 20:11:00,42.2,22.4,30.00,WSW,256,0.0,4.0,45,0.00,,,0.10,VWS V14.01,2013-02-01 01:11:00,
2013-01-31 20:16:00,41.9,22.1,30.00,WNW,294,0.0,4.0,45,0.00,,,0.10,VWS V14.01,2013-02-01 01:16:00,
2013-01-31 20:21:00,41.7,22.5,30.00,West,269,0.0,4.0,46,0.00,,,0.10,VWS V14.01,2013-02-01 01:21:00,
2013-01-31 20:26:00,41.5,21.8,29.99,NW,306,2.0,4.0,45,0.00,,,0.10,VWS V14.01,2013-02-01 01:26:00,
2013-01-31 20:31:00,41.5,21.8,30.00,NW,307,1.0,4.0,45,0.00,,,0.10,VWS V14.01,2013-02-01 01:31:00,
2013-01-31 20:36:00,41.3,22.1,30.00,NW,310,0.0,2.0,46,0.00,,,0.10,VWS V14.01,2013-02-01 01:36:00,
2013-01-31 20:41:00,41.1,21.9,30.00,NW,308,0.0,2.0,46,0.00,,,0.10,VWS V14.01,2013-02-01 01:41:00,
2013-01-31 20:46:00,40.9,21.7,30.00,West,280,0.0,2.0,46,0.00,,,0.10,VWS V14.01,2013-02-01 01:46:00,
2013-01-31 20:51:00,40.7,22.1,29.99,NW,311,0.0,2.0,47,0.00,,,0.10,VWS V14.01,2013-02-01 01:51:00,
2013-01-31 20:56:00,40.5,22.4,30.00,WSW,246,0.0,2.0,48,0.00,,,0.10,VWS V14.01,2013-02-01 01:56:00,
2013-01-31 21:01:00,40.2,22.1,30.00,West,267,0.0,0.0,48,0.00,,,0.10,VWS V14.01,2013-02-01 02:01:00,
2013-01-31 21:06:00,39.9,22.3,30.00,WSW,254,0.0,0.0,49,0.00,,,0.10,VWS V14.01,2013-02-01 02:06:00,
2013-01-31 21:11:00,39.5,22.4,30.00,WSW,250,0.0,0.0,50,0.00,,,0.10,VWS V14.01,2013-02-01 02:11:00,
2013-01-31 21:16:00,39.3,22.2,30.00,WSW,240,0.0,1.0,50,0.00,,,0.10,VWS V14.01,2013-02-01 02:16:00,
2013-01-31 21:21:00,39.1,22.5,30.00,WSW,240,0.0,1.0,51,0.00,,,0.10,VWS V14.01,2013-02-01 02:21:00,
2013-01-31 21:26:00,38.7,23.1,30.00,WSW,240,0.0,1.0,53,0.00,,,0.10,VWS V14.01,2013-02-01 02:26:00,
2013-01-31 21:31:00,38.4,22.3,30.00,WSW,238,0.0,1.0,52,0.00,,,0.10,VWS V14.01,2013-02-01 02:31:00,
2013-01-31 21:36:00,38.3,22.7,30.00,WSW,238,0.0,0.0,53,0.00,,,0.10,VWS V14.01,2013-02-01 02:36:00,
2013-01-31 21:41:00,38.2,22.6,30.00,WSW,238,0.0,0.0,53,0.00,,,0.10,VWS V14.01,2013-02-01 02:41:00,
2013-01-31 21:46:00,38.1,22.9,29.99,WSW,238,0.0,1.0,54,0.00,,,0.10,VWS V14.01,2013-02-01 02:46:00,
2013-01-31 21:51:00,38.2,23.0,29.99,WSW,246,0.0,1.0,54,0.00,,,0.10,VWS V14.01,2013-02-01 02:51:00,
2013-01-31 21:56:00,38.3,23.1,29.99,WSW,238,0.0,1.0,54,0.00,,,0.10,VWS V14.01,2013-02-01 02:56:00,
2013-01-31 22:01:00,38.4,23.2,30.00,WSW,247,0.0,1.0,54,0.00,,,0.10,VWS V14.01,2013-02-01 03:01:00,
2013-01-31 22:06:00,38.5,23.3,30.00,WSW,246,0.0,2.0,54,0.00,,,0.10,VWS V14.01,2013-02-01 03:06:00,
2013-01-31 22:11:00,38.5,23.3,30.00,WSW,241,0.0,2.0,54,0.00,,,0.10,VWS V14.01,2013-02-01 03:11:00,
2013-01-31 22:16:00,38.4,23.2,30.00,SW,223,0.0,2.0,54,0.00,,,0.10,VWS V14.01,2013-02-01 03:16:00,
2013-01-31 22:21:00,38.2,23.0,30.00,WSW,241,0.0,2.0,54,0.00,,,0.10,VWS V14.01,2013-02-01 03:21:00,
2013-01-31 22:26:00,38.0,23.3,30.00,SSW,209,1.0,2.0,55,0.00,,,0.10,VWS V14.01,2013-02-01 03:26:00,
2013-01-31 22:31:00,37.9,23.2,30.00,SW,217,0.0,2.0,55,0.00,,,0.10,VWS V14.01,2013-02-01 03:31:00,
2013-01-31 22:36:00,37.6,22.9,30.01,SW,217,0.0,0.0,55,0.00,,,0.10,VWS V14.01,2013-02-01 03:36:00,
2013-01-31 22:41:00,37.5,23.2,30.00,SW,234,0.0,1.0,56,0.00,,,0.10,VWS V14.01,2013-02-01 03:41:00,
2013-01-31 22:46:00,37.6,22.9,30.00,SW,234,0.0,1.0,55,0.00,,,0.10,VWS V14.01,2013-02-01 03:46:00,
2013-01-31 22:51:00,37.7,23.0,30.00,SSW,209,0.0,3.0,55,0.00,,,0.10,VWS V14.01,2013-02-01 03:51:00,
2013-01-31 22:56:00,37.6,22.9,30.00,SSE,167,0.0,3.0,55,0.00,,,0.10,VWS V14.01,2013-02-01 03:56:00,
2013-01-31 23:01:00,37.8,22.2,30.01,WSW,240,0.0,3.0,53,0.00,,,0.10,VWS V14.01,2013-02-01 04:01:00,
2013-01-31 23:06:00,37.9,22.3,30.00,South,172,0.0,1.0,53,0.00,,,0.10,VWS V14.01,2013-02-01 04:06:00,
2013-01-31 23:11:00,37.9,22.3,30.00,SW,229,0.0,1.0,53,0.00,,,0.10,VWS V14.01,2013-02-01 04:11:00,
2013-01-31 23:16:00,38.1,22.0,30.01,SW,215,0.0,2.0,52,0.00,,,0.10,VWS V14.01,2013-02-01 04:16:00,
2013-01-31 23:21:00,38.1,22.5,30.01,SSW,196,1.0,2.0,53,0.00,,,0.10,VWS V14.01,2013-02-01 04:21:00,
2013-01-31 23:25:00,38.0,22.9,30.01,SSE,155,0.0,3.0,54,0.00,,,0.10,VWS V14.01,2013-02-01 04:25:00,
2013-01-31 23:30:00,37.5,23.2,30.01,SSW,207,0.0,3.0,56,0.00,,,0.10,VWS V14.01,2013-02-01 04:30:00,
2013-01-31 23:35:00,37.5,22.8,30.01,SW,232,0.0,5.0,55,0.00,,,0.10,VWS V14.01,2013-02-01 04:35:00,
2013-01-31 23:40:00,37.4,22.7,30.01,WSW,237,0.0,5.0,55,0.00,,,0.10,VWS V14.01,2013-02-01 04:40:00,
2013-01-31 23:45:00,37.3,22.6,30.01,WSW,241,0.0,5.0,55,0.00,,,0.10,VWS V14.01,2013-02-01 04:45:00,
2013-01-31 23:50:00,37.5,22.8,30.01,WSW,240,0.0,5.0,55,0.00,,,0.10,VWS V14.01,2013-02-01 04:50:00,
2013-01-31 23:55:00,37.5,22.8,30.00,SW,214,0.0,5.0,55,0.00,,,0.10,VWS V14.01,2013-02-01 04:55:00,